Independence — WDF3297 — position and weather

sailwx.info

Track history (hours):
 
Tides and Currents Weather Stations Pressure Air Temp Water Temp Dewpoint Dewpoint Depression Visibility Wind Speed Wind Dir Waves Ship Positions

Independence

Owner: American Cruise Lines Inc., Delmar, DE. More information available from US FCC via Universal Licensing System and Coast Guard Vessel Documentation Center.

Last reported at 2017-Mar-22 10:29 UTC. Time now 2017-Mar-23 12:31 UTC.
Position N 31°51' W 081°08'.

Length 65 m; draft 2.5 m.

Type: Passenger vessel. MMSI: 367438210.

Date/timePositionNaut miles runAvg speedWind from/ knotsBaromVisibWave heightAir tempDewpointWater temp
2017-Mar-22 10:29N 31°51' W 081°08'5 4.9
2017-Mar-22 09:33N 31°55' W 081°05'6 5.8
2017-Mar-22 08:33N 32°00' W 081°01'4 3.9
2017-Mar-22 07:33N 32°04' W 080°60'5 4.9
2017-Mar-22 06:33N 32°05' W 081°06'0 0.0
2017-Mar-22 05:13N 32°05' W 081°06'0 0.0
2017-Mar-22 04:31N 32°05' W 081°06'0 0.0
2017-Mar-22 03:25N 32°05' W 081°06'0 0.0
2017-Mar-22 02:31N 32°05' W 081°06'0 0.0
2017-Mar-22 01:31N 32°05' W 081°06'0 0.0
2017-Mar-22 00:19N 32°05' W 081°06'0 0.0
2017-Mar-21 23:31N 32°05' W 081°06'0 0.0
2017-Mar-21 22:31N 32°05' W 081°06'0 0.0
2017-Mar-21 21:31N 32°05' W 081°06'0 0.0
2017-Mar-21 20:19N 32°05' W 081°06'0 0.0
2017-Mar-21 19:19N 32°05' W 081°06'0 0.0
2017-Mar-21 18:25N 32°05' W 081°06'0 0.0
2017-Mar-21 17:31N 32°05' W 081°06'0 0.0
2017-Mar-21 16:31N 32°05' W 081°06'0 0.0
2017-Mar-21 15:31N 32°05' W 081°06'0 0.0
2017-Mar-21 14:31N 32°05' W 081°06'0 0.0
2017-Mar-21 13:07N 32°05' W 081°06'0 0.0
2017-Mar-21 12:31N 32°05' W 081°06'0 0.0
2017-Mar-21 11:19N 32°05' W 081°06'0 0.0
2017-Mar-21 10:31N 32°05' W 081°06'0 0.0
2017-Mar-21 09:31N 32°05' W 081°06'0 0.0
2017-Mar-21 08:07N 32°05' W 081°06'0 0.0
2017-Mar-21 07:19N 32°05' W 081°06'0 0.0
2017-Mar-21 05:31N 32°05' W 081°06'0 0.0
2017-Mar-21 04:31N 32°05' W 081°06'0 0.0
2017-Mar-21 03:31N 32°05' W 081°06'0 0.0
2017-Mar-21 02:31N 32°05' W 081°06'0 0.0
2017-Mar-21 00:19N 32°05' W 081°06'2 2.8
2017-Mar-20 23:32N 32°05' W 081°03'6 6.4
2017-Mar-20 22:33N 32°05' W 080°56'6 5.4
2017-Mar-20 21:29N 32°08' W 080°50'1 0.6
2017-Mar-20 20:22N 32°07' W 080°50'0 0.0
2017-Mar-20 18:10N 32°08' W 080°50'0 0.0
2017-Mar-20 17:16N 32°08' W 080°50'0 0.0
2017-Mar-20 16:28N 32°08' W 080°50'0 0.0
2017-Mar-20 15:28N 32°07' W 080°50'3 3.7
2017-Mar-20 14:33N 32°10' W 080°48'  
Track history (hours):
 
Tides and Currents Weather Stations Pressure Air Temp Water Temp Dewpoint Dewpoint Depression Visibility Wind Speed Wind Dir Waves Ship Positions

Independence

Owner: American Cruise Lines Inc., Delmar, DE. More information available from US FCC via Universal Licensing System and Coast Guard Vessel Documentation Center.

Last reported at 2017-Mar-22 10:29 UTC. Time now 2017-Mar-23 12:31 UTC.
Position N 31°51' W 081°08'.

Length 65 m; draft 2.5 m.

Type: Passenger vessel. MMSI: 367438210.

Date/timePositionNaut miles runAvg speedWind from/ knotsBaromVisibWave heightAir tempDewpointWater temp
2017-Mar-22 10:29N 31°51' W 081°08'5 4.9
2017-Mar-22 09:33N 31°55' W 081°05'6 5.8
2017-Mar-22 08:33N 32°00' W 081°01'4 3.9
2017-Mar-22 07:33N 32°04' W 080°60'5 4.9
2017-Mar-22 06:33N 32°05' W 081°06'0 0.0
2017-Mar-22 05:13N 32°05' W 081°06'0 0.0
2017-Mar-22 04:31N 32°05' W 081°06'0 0.0
2017-Mar-22 03:25N 32°05' W 081°06'0 0.0
2017-Mar-22 02:31N 32°05' W 081°06'0 0.0
2017-Mar-22 01:31N 32°05' W 081°06'0 0.0
2017-Mar-22 00:19N 32°05' W 081°06'0 0.0
2017-Mar-21 23:31N 32°05' W 081°06'0 0.0
2017-Mar-21 22:31N 32°05' W 081°06'0 0.0
2017-Mar-21 21:31N 32°05' W 081°06'0 0.0
2017-Mar-21 20:19N 32°05' W 081°06'0 0.0
2017-Mar-21 19:19N 32°05' W 081°06'0 0.0
2017-Mar-21 18:25N 32°05' W 081°06'0 0.0
2017-Mar-21 17:31N 32°05' W 081°06'0 0.0
2017-Mar-21 16:31N 32°05' W 081°06'0 0.0
2017-Mar-21 15:31N 32°05' W 081°06'0 0.0
2017-Mar-21 14:31N 32°05' W 081°06'0 0.0
2017-Mar-21 13:07N 32°05' W 081°06'0 0.0
2017-Mar-21 12:31N 32°05' W 081°06'0 0.0
2017-Mar-21 11:19N 32°05' W 081°06'0 0.0
2017-Mar-21 10:31N 32°05' W 081°06'0 0.0
2017-Mar-21 09:31N 32°05' W 081°06'0 0.0
2017-Mar-21 08:07N 32°05' W 081°06'0 0.0
2017-Mar-21 07:19N 32°05' W 081°06'0 0.0
2017-Mar-21 05:31N 32°05' W 081°06'0 0.0
2017-Mar-21 04:31N 32°05' W 081°06'0 0.0
2017-Mar-21 03:31N 32°05' W 081°06'0 0.0
2017-Mar-21 02:31N 32°05' W 081°06'0 0.0
2017-Mar-21 00:19N 32°05' W 081°06'2 2.8
2017-Mar-20 23:32N 32°05' W 081°03'6 6.4
2017-Mar-20 22:33N 32°05' W 080°56'6 5.4
2017-Mar-20 21:29N 32°08' W 080°50'1 0.6
2017-Mar-20 20:22N 32°07' W 080°50'0 0.0
2017-Mar-20 18:10N 32°08' W 080°50'0 0.0
2017-Mar-20 17:16N 32°08' W 080°50'0 0.0
2017-Mar-20 16:28N 32°08' W 080°50'0 0.0
2017-Mar-20 15:28N 32°07' W 080°50'3 3.7
2017-Mar-20 14:33N 32°10' W 080°48'  

Dump ship's entire track history